| time (UTC) | temp F | wind direction | speed MPH | gust MPH | rain 1hr in | rain 24hr in | rain mn in | humidity % | barometer mb |
| 20260509040553 | 59 | 304 | 0.0 | 0.0 | 0.00 | 0.18 | 0.18 | 96 | 1010.8 |
| 20260509040050 | 59 | 304 | 0.0 | 0.0 | 0.00 | 0.18 | 0.18 | 96 | 1010.8 |
| 20260509035547 | 59 | 304 | 0.0 | 0.0 | 0.00 | 0.18 | 0.18 | 96 | 1010.8 |
| 20260509035043 | 59 | 304 | 0.0 | 0.0 | 0.00 | 0.18 | 0.18 | 95 | 1010.8 |
| 20260509034542 | 60 | 304 | 0.0 | 0.0 | 0.00 | 0.18 | 0.18 | 96 | 1010.8 |
| 20260509034038 | 60 | 304 | 0.0 | 0.0 | 0.00 | 0.18 | 0.18 | 96 | 1011.1 |
| 20260509033536 | 60 | 304 | 0.0 | 0.0 | 0.00 | 0.18 | 0.18 | 96 | 1011.1 |
| 20260509033032 | 60 | 304 | 0.0 | 0.0 | 0.00 | 0.18 | 0.18 | 95 | 1011.1 |
| 20260509032529 | 60 | 304 | 0.0 | 0.0 | 0.00 | 0.18 | 0.18 | 95 | 1011.4 |
| 20260509032027 | 60 | 303 | 0.0 | 0.0 | 0.00 | 0.18 | 0.18 | 95 | 1011.8 |
| 20260509031524 | 60 | 303 | 0.0 | 0.0 | 0.00 | 0.18 | 0.18 | 95 | 1011.4 |
| 20260509031021 | 60 | 303 | 0.0 | 0.0 | 0.00 | 0.18 | 0.18 | 94 | 1011.4 |
| 20260509030519 | 60 | 303 | 0.0 | 0.0 | 0.00 | 0.18 | 0.18 | 94 | 1011.1 |
| 20260509030016 | 60 | 303 | 0.0 | 0.0 | 0.00 | 0.18 | 0.18 | 93 | 1011.1 |
| 20260509025512 | 60 | 303 | 0.0 | 0.0 | 0.00 | 0.18 | 0.18 | 93 | 1010.8 |
| 20260509025007 | 60 | 297 | 2.0 | 2.0 | 0.00 | 0.18 | 0.18 | 93 | 1010.8 |
| 20260509024503 | 60 | 325 | 0.0 | 0.0 | 0.00 | 0.18 | 0.18 | 93 | 1010.8 |
| 20260509024000 | 60 | 321 | 0.0 | 0.0 | 0.07 | 0.18 | 0.18 | 93 | 1010.4 |
| 20260509023458 | 60 | 247 | 4.0 | 5.0 | 0.12 | 0.18 | 0.18 | 94 | 1010.1 |
| 20260509022954 | 60 | 350 | 2.0 | 2.0 | 0.19 | 0.17 | 0.17 | 94 | 1010.8 |
| 20260509022451 | 60 | 342 | 3.0 | 3.0 | 0.26 | 0.16 | 0.16 | 94 | 1010.8 |
| 20260509021949 | 61 | 4 | 1.0 | 2.0 | 0.28 | 0.14 | 0.14 | 94 | 1010.8 |
| 20260509021445 | 61 | 332 | 0.0 | 1.0 | 0.24 | 0.12 | 0.12 | 93 | 1011.1 |
| 20260509020943 | 61 | 354 | 3.0 | 3.0 | 0.24 | 0.10 | 0.10 | 93 | 1011.1 |
| 20260509020441 | 61 | 348 | 5.0 | 7.0 | 0.35 | 0.08 | 0.08 | 92 | 1011.1 |
| 20260509015938 | 61 | 357 | 2.0 | 2.0 | 0.35 | 0.06 | 0.06 | 91 | 1010.8 |
| 20260509015437 | 62 | 346 | 3.0 | 3.0 | 0.12 | 0.02 | 0.02 | 90 | 1010.4 |
| 20260509014933 | 63 | 343 | 1.0 | 1.0 | 0.00 | 0.00 | 0.00 | 87 | 1009.6 |
| 20260509014429 | 63 | 345 | 3.0 | 3.0 | 0.00 | 0.00 | 0.00 | 85 | 1009.6 |
| 20260509013926 | 64 | 344 | 3.0 | 3.0 | 0.00 | 0.00 | 0.00 | 82 | 1009.3 |
| 20260509013423 | 64 | 15 | 3.0 | 2.0 | 0.00 | 0.00 | 0.00 | 80 | 1009.0 |
| 20260509012918 | 64 | 338 | 5.0 | 5.0 | 0.00 | 0.00 | 0.00 | 79 | 1009.3 |
| 20260509012415 | 64 | 344 | 4.0 | 5.0 | 0.00 | 0.00 | 0.00 | 80 | 1009.0 |
| 20260509011913 | 64 | 343 | 5.0 | 5.0 | 0.00 | 0.00 | 0.00 | 79 | 1009.0 |
| 20260509011410 | 64 | 340 | 9.0 | 10.0 | 0.00 | 0.00 | 0.00 | 80 | 1009.3 |
| 20260509010908 | 64 | 354 | 5.0 | 7.0 | 0.00 | 0.00 | 0.00 | 81 | 1009.6 |
| 20260509010405 | 64 | 260 | 0.0 | 0.0 | 0.00 | 0.00 | 0.00 | 82 | 1008.3 |
| 20260509005856 | 64 | 260 | 0.0 | 0.0 | 0.00 | 0.00 | 0.00 | 81 | 1008.0 |
| 20260509005354 | 64 | 260 | 0.0 | 1.0 | 0.00 | 0.00 | 0.00 | 81 | 1008.3 |
| 20260509004849 | 64 | 260 | 0.0 | 0.0 | 0.00 | 0.00 | 0.00 | 81 | 1007.6 |
| 20260509004345 | 65 | 260 | 0.0 | 0.0 | 0.00 | 0.00 | 0.00 | 81 | 1007.6 |
| 20260509003843 | 65 | 260 | 1.0 | 1.0 | 0.00 | 0.00 | 0.00 | 81 | 1007.6 |
| 20260509003341 | 65 | 260 | 1.0 | 1.0 | 0.00 | 0.00 | 0.00 | 80 | 1007.6 |
| 20260509002837 | 65 | 260 | 1.0 | 1.0 | 0.00 | 0.00 | 0.00 | 80 | 1008.0 |
| 20260509002335 | 65 | 260 | 2.0 | 2.0 | 0.00 | 0.00 | 0.00 | 79 | 1007.6 |
| 20260509001833 | 66 | 272 | 1.0 | 1.0 | 0.00 | 0.00 | 0.00 | 78 | 1008.3 |
| 20260509001328 | 66 | 278 | 1.0 | 1.0 | 0.00 | 0.00 | 0.00 | 77 | 1008.3 |
| 20260509000826 | 66 | 279 | 1.0 | 1.0 | 0.00 | 0.00 | 0.00 | 76 | 1008.0 |
| 20260509000325 | 66 | 288 | 0.0 | 0.0 | 0.00 | 0.00 | 0.00 | 75 | 1008.3 |
| 20260508235820 | 66 | 288 | 0.0 | 0.0 | 0.00 | 0.00 | 0.00 | 74 | 1008.3 |
| 20260508235317 | 66 | 290 | 0.0 | 0.0 | 0.00 | 0.00 | 0.00 | 74 | 1008.0 |
| 20260508234814 | 66 | 290 | 0.0 | 0.0 | 0.00 | 0.00 | 0.00 | 73 | 1008.0 |
| 20260508234310 | 66 | 290 | 0.0 | 0.0 | 0.00 | 0.00 | 0.00 | 73 | 1008.3 |
| 20260508233809 | 66 | 290 | 0.0 | 0.0 | 0.00 | 0.00 | 0.00 | 72 | 1008.0 |
| 20260508233308 | 66 | 290 | 0.0 | 0.0 | 0.00 | 0.00 | 0.00 | 72 | 1008.3 |
| 20260508232804 | 67 | 290 | 0.0 | 0.0 | 0.00 | 0.00 | 0.00 | 71 | 1008.3 |
| 20260508232300 | 67 | 302 | 1.0 | 1.0 | 0.00 | 0.00 | 0.00 | 71 | 1008.6 |
| 20260508231759 | 67 | 313 | 0.0 | 1.0 | 0.00 | 0.00 | 0.00 | 69 | 1008.6 |
| 20260508231255 | 67 | 196 | 2.0 | 2.0 | 0.00 | 0.00 | 0.00 | 70 | 1008.6 |
| 20260508230752 | 67 | 265 | 1.0 | 2.0 | 0.00 | 0.00 | 0.00 | 68 | 1009.3 |
| 20260508230248 | 67 | 230 | 2.0 | 2.0 | 0.00 | 0.00 | 0.00 | 69 | 1009.6 |
| 20260508225746 | 67 | 333 | 0.0 | 0.0 | 0.00 | 0.00 | 0.00 | 67 | 1009.6 |
| 20260508225242 | 68 | 329 | 0.0 | 0.0 | 0.00 | 0.00 | 0.00 | 66 | 1010.1 |
| 20260508224740 | 68 | 344 | 1.0 | 1.0 | 0.00 | 0.00 | 0.00 | 66 | 1010.1 |
| 20260508224237 | 69 | 336 | 1.0 | 2.0 | 0.00 | 0.00 | 0.00 | 64 | 1010.1 |
| 20260508223735 | 69 | 346 | 2.0 | 2.0 | 0.00 | 0.00 | 0.00 | 62 | 1010.1 |
| 20260508223232 | 70 | 2 | 3.0 | 3.0 | 0.00 | 0.00 | 0.00 | 60 | 1010.1 |
| 20260508222729 | 70 | 359 | 2.0 | 3.0 | 0.00 | 0.00 | 0.00 | 58 | 1010.1 |
| 20260508222227 | 71 | 333 | 0.0 | 0.0 | 0.00 | 0.00 | 0.00 | 58 | 1009.6 |
| 20260508221723 | 71 | 333 | 0.0 | 0.0 | 0.00 | 0.00 | 0.00 | 56 | 1009.6 |
| 20260508221219 | 72 | 334 | 1.0 | 1.0 | 0.00 | 0.00 | 0.00 | 55 | 1009.6 |
| 20260508220715 | 74 | 342 | 0.0 | 0.0 | 0.00 | 0.00 | 0.00 | 51 | 1010.1 |
| 20260508220212 | 74 | 343 | 0.0 | 0.0 | 0.00 | 0.00 | 0.00 | 50 | 1009.6 |
| 20260508215708 | 75 | 329 | 0.0 | 1.0 | 0.00 | 0.00 | 0.00 | 45 | 1009.6 |
| 20260508215205 | 75 | 319 | 0.0 | 0.0 | 0.00 | 0.00 | 0.00 | 45 | 1009.6 |
| 20260508214702 | 76 | 334 | 0.0 | 0.0 | 0.00 | 0.00 | 0.00 | 46 | 1009.3 |
| 20260508214200 | 77 | 334 | 0.0 | 0.0 | 0.00 | 0.00 | 0.00 | 43 | 1009.0 |
| 20260508213656 | 77 | 343 | 0.0 | 1.0 | 0.00 | 0.00 | 0.00 | 38 | 1009.0 |
| 20260508213152 | 77 | 354 | 0.0 | 0.0 | 0.00 | 0.00 | 0.00 | 39 | 1009.0 |
| 20260508212649 | 78 | 309 | 1.0 | 1.0 | 0.00 | 0.00 | 0.00 | 41 | 1009.0 |
| 20260508212145 | 78 | 167 | 3.0 | 3.0 | 0.00 | 0.00 | 0.00 | 38 | 1009.0 |
| 20260508211640 | 78 | 288 | 1.0 | 1.0 | 0.00 | 0.00 | 0.00 | 41 | 1009.0 |
| 20260508211137 | 79 | 326 | 0.0 | 0.0 | 0.00 | 0.00 | 0.00 | 41 | 1009.0 |
| 20260508210634 | 79 | 198 | 3.0 | 3.0 | 0.00 | 0.00 | 0.00 | 37 | 1009.0 |
| 20260508210132 | 80 | 153 | 2.0 | 5.0 | 0.00 | 0.00 | 0.00 | 37 | 1009.0 |
| 20260508205628 | 80 | 285 | 1.0 | 1.0 | 0.00 | 0.00 | 0.00 | 37 | 1009.3 |
| 20260508205125 | 80 | 292 | 1.0 | 2.0 | 0.00 | 0.00 | 0.00 | 34 | 1009.3 |
| 20260508204621 | 80 | 196 | 2.0 | 2.0 | 0.00 | 0.00 | 0.00 | 34 | 1009.3 |
| 20260508204117 | 80 | 300 | 0.0 | 0.0 | 0.00 | 0.00 | 0.00 | 36 | 1009.3 |
| 20260508203614 | 81 | 157 | 5.0 | 6.0 | 0.00 | 0.00 | 0.00 | 33 | 1009.6 |
| 20260508203110 | 81 | 283 | 0.0 | 0.0 | 0.00 | 0.00 | 0.00 | 34 | 1009.6 |
| 20260508202606 | 80 | 295 | 0.0 | 0.0 | 0.00 | 0.00 | 0.00 | 35 | 1009.3 |
| 20260508202104 | 80 | 199 | 6.0 | 7.0 | 0.00 | 0.00 | 0.00 | 33 | 1009.6 |
| 20260508201600 | 80 | 219 | 3.0 | 5.0 | 0.00 | 0.00 | 0.00 | 33 | 1010.1 |
| 20260508201057 | 80 | 259 | 3.0 | 3.0 | 0.00 | 0.00 | 0.00 | 37 | 1010.1 |
| 20260508200554 | 79 | 183 | 6.0 | 7.0 | 0.00 | 0.00 | 0.00 | 35 | 1010.1 |
| 20260508200049 | 80 | 185 | 3.0 | 7.0 | 0.00 | 0.00 | 0.00 | 34 | 1010.1 |
| 20260508195546 | 80 | 205 | 1.0 | 1.0 | 0.00 | 0.00 | 0.00 | 35 | 1010.1 |
| 20260508195042 | 79 | 272 | 0.0 | 0.0 | 0.00 | 0.00 | 0.00 | 36 | 1010.1 |
| 20260508194540 | 79 | 6 | 2.0 | 3.0 | 0.00 | 0.00 | 0.00 | 36 | 1010.4 |
| 20260508194037 | 79 | 227 | 3.0 | 3.0 | 0.00 | 0.00 | 0.00 | 34 | 1010.1 |
| 20260508193533 | 78 | 237 | 4.0 | 5.0 | 0.00 | 0.00 | 0.00 | 37 | 1010.4 |
| 20260508193030 | 79 | 173 | 3.0 | 3.0 | 0.00 | 0.00 | 0.00 | 35 | 1010.8 |
| 20260508192527 | 78 | 236 | 4.0 | 6.0 | 0.00 | 0.00 | 0.00 | 36 | 1010.8 |
| 20260508192024 | 78 | 206 | 2.0 | 3.0 | 0.00 | 0.00 | 0.00 | 40 | 1010.8 |
| 20260508191521 | 78 | 180 | 4.0 | 5.0 | 0.00 | 0.00 | 0.00 | 39 | 1010.8 |
| 20260508191017 | 78 | 156 | 6.0 | 6.0 | 0.00 | 0.00 | 0.00 | 37 | 1010.8 |
| 20260508190515 | 79 | 125 | 0.0 | 1.0 | 0.00 | 0.00 | 0.00 | 38 | 1011.1 |
| 20260508190010 | 78 | 155 | 5.0 | 6.0 | 0.00 | 0.00 | 0.00 | 38 | 1011.1 |
| 20260508185508 | 78 | 154 | 3.0 | 5.0 | 0.00 | 0.00 | 0.00 | 40 | 1010.8 |
| 20260508185006 | 77 | 160 | 3.0 | 3.0 | 0.00 | 0.00 | 0.00 | 41 | 1011.1 |
| 20260508184504 | 77 | 167 | 5.0 | 7.0 | 0.00 | 0.00 | 0.00 | 39 | 1011.4 |
| 20260508183959 | 76 | 203 | 3.0 | 3.0 | 0.00 | 0.00 | 0.00 | 42 | 1011.4 |
| 20260508183456 | 76 | 302 | 0.0 | 0.0 | 0.00 | 0.00 | 0.00 | 43 | 1011.8 |
| 20260508182957 | 75 | 320 | 1.0 | 0.0 | 0.00 | 0.00 | 0.00 | 42 | 1011.8 |
| 20260508182454 | 75 | 249 | 3.0 | 3.0 | 0.00 | 0.00 | 0.00 | 46 | 1011.8 |
| 20260508181950 | 74 | 186 | 3.0 | 5.0 | 0.00 | 0.00 | 0.00 | 46 | 1011.8 |
| 20260508181446 | 74 | 312 | 0.0 | 0.0 | 0.00 | 0.00 | 0.00 | 46 | 1011.8 |
| 20260508180944 | 74 | 237 | 2.0 | 2.0 | 0.00 | 0.00 | 0.00 | 46 | 1011.8 |
| 20260508180440 | 74 | 310 | 0.0 | 0.0 | 0.00 | 0.00 | 0.00 | 44 | 1011.8 |
| 20260508175936 | 75 | 175 | 4.0 | 6.0 | 0.00 | 0.00 | 0.00 | 45 | 1012.1 |
| 20260508175433 | 75 | 339 | 1.0 | 1.0 | 0.00 | 0.00 | 0.00 | 45 | 1012.1 |
| 20260508174931 | 74 | 254 | 1.0 | 1.0 | 0.00 | 0.00 | 0.00 | 46 | 1012.5 |
| 20260508174428 | 74 | 179 | 3.0 | 3.0 | 0.00 | 0.00 | 0.00 | 46 | 1012.1 |
| 20260508173925 | 73 | 255 | 1.0 | 2.0 | 0.00 | 0.00 | 0.00 | 48 | 1012.1 |
| 20260508173422 | 73 | 191 | 1.0 | 1.0 | 0.00 | 0.00 | 0.00 | 48 | 1012.5 |
| 20260508172918 | 72 | 289 | 1.0 | 1.0 | 0.00 | 0.00 | 0.00 | 52 | 1012.1 |
| 20260508172416 | 73 | 22 | 3.0 | 5.0 | 0.00 | 0.00 | 0.00 | 47 | 1012.5 |
| 20260508171911 | 73 | 127 | 3.0 | 3.0 | 0.00 | 0.00 | 0.00 | 48 | 1012.8 |
| 20260508171408 | 73 | 204 | 3.0 | 5.0 | 0.00 | 0.00 | 0.00 | 48 | 1012.8 |
| 20260508170905 | 73 | 255 | 1.0 | 2.0 | 0.00 | 0.00 | 0.00 | 49 | 1012.8 |
| 20260508170402 | 73 | 269 | 2.0 | 2.0 | 0.00 | 0.00 | 0.00 | 48 | 1012.8 |
| 20260508165858 | 73 | 303 | 1.0 | 2.0 | 0.00 | 0.00 | 0.00 | 48 | 1012.8 |
| 20260508165357 | 73 | 137 | 2.0 | 2.0 | 0.00 | 0.00 | 0.00 | 49 | 1012.8 |
| 20260508164852 | 71 | 164 | 3.0 | 5.0 | 0.00 | 0.00 | 0.00 | 50 | 1012.8 |
| 20260508164350 | 72 | 156 | 7.0 | 7.0 | 0.00 | 0.00 | 0.00 | 48 | 1013.5 |
| 20260508163847 | 72 | 299 | 1.0 | 1.0 | 0.00 | 0.00 | 0.00 | 50 | 1013.5 |
| 20260508163345 | 70 | 348 | 1.0 | 1.0 | 0.00 | 0.00 | 0.00 | 51 | 1013.5 |
| 20260508162840 | 70 | 86 | 0.0 | 0.0 | 0.00 | 0.00 | 0.00 | 51 | 1013.5 |
| 20260508162337 | 70 | 247 | 0.0 | 0.0 | 0.00 | 0.00 | 0.00 | 51 | 1013.5 |
| 20260508161834 | 71 | 165 | 2.0 | 3.0 | 0.00 | 0.00 | 0.00 | 52 | 1013.5 |
| 20260508161332 | 71 | 232 | 1.0 | 1.0 | 0.00 | 0.00 | 0.00 | 50 | 1013.5 |
| 20260508160829 | 71 | 43 | 4.0 | 3.0 | 0.00 | 0.00 | 0.00 | 50 | 1013.5 |
| 20260508160327 | 70 | 241 | 2.0 | 1.0 | 0.00 | 0.00 | 0.00 | 49 | 1013.8 |
| 20260508155818 | 70 | 160 | 4.0 | 5.0 | 0.00 | 0.00 | 0.00 | 49 | 1013.8 |
| 20260508155315 | 69 | 171 | 5.0 | 6.0 | 0.00 | 0.00 | 0.00 | 51 | 1013.8 |
| 20260508154812 | 68 | 154 | 0.0 | 0.0 | 0.00 | 0.00 | 0.00 | 53 | 1013.8 |
| 20260508154310 | 69 | 169 | 8.0 | 10.0 | 0.00 | 0.00 | 0.00 | 50 | 1013.5 |
| 20260508153806 | 69 | 196 | 3.0 | 6.0 | 0.00 | 0.00 | 0.00 | 50 | 1013.8 |
| 20260508153304 | 69 | 184 | 2.0 | 2.0 | 0.00 | 0.00 | 0.00 | 53 | 1013.8 |
| 20260508152759 | 68 | 212 | 1.0 | 1.0 | 0.00 | 0.00 | 0.00 | 51 | 1013.8 |
| 20260508152256 | 68 | 218 | 1.0 | 1.0 | 0.00 | 0.00 | 0.00 | 52 | 1014.6 |
| 20260508151752 | 68 | 138 | 5.0 | 5.0 | 0.00 | 0.00 | 0.00 | 51 | 1014.6 |
| 20260508151249 | 69 | 84 | 3.0 | 3.0 | 0.00 | 0.00 | 0.00 | 49 | 1014.6 |
| 20260508150745 | 69 | 214 | 3.0 | 3.0 | 0.00 | 0.00 | 0.00 | 51 | 1014.6 |
| 20260508150242 | 68 | 258 | 1.0 | 1.0 | 0.00 | 0.00 | 0.00 | 51 | 1014.2 |
| 20260508145738 | 68 | 17 | 0.0 | 1.0 | 0.00 | 0.00 | 0.00 | 53 | 1014.6 |
| 20260508145235 | 68 | 260 | 3.0 | 3.0 | 0.00 | 0.00 | 0.00 | 54 | 1014.2 |
| 20260508144732 | 67 | 160 | 1.0 | 1.0 | 0.00 | 0.00 | 0.00 | 52 | 1014.6 |
| 20260508144230 | 66 | 5 | 2.0 | 3.0 | 0.00 | 0.00 | 0.00 | 53 | 1014.2 |
| 20260508143727 | 66 | 163 | 3.0 | 3.0 | 0.00 | 0.00 | 0.00 | 52 | 1014.6 |
| 20260508143224 | 67 | 207 | 2.0 | 2.0 | 0.00 | 0.00 | 0.00 | 52 | 1014.6 |
| 20260508142720 | 68 | 202 | 1.0 | 2.0 | 0.00 | 0.00 | 0.00 | 51 | 1014.2 |
| 20260508142217 | 67 | 173 | 4.0 | 5.0 | 0.00 | 0.00 | 0.00 | 52 | 1014.6 |
| 20260508141714 | 66 | 53 | 4.0 | 5.0 | 0.00 | 0.00 | 0.00 | 53 | 1014.6 |
| 20260508141211 | 65 | 136 | 2.0 | 3.0 | 0.00 | 0.00 | 0.00 | 55 | 1014.6 |
| 20260508140708 | 64 | 178 | 2.0 | 3.0 | 0.00 | 0.00 | 0.00 | 55 | 1014.6 |
| 20260508140205 | 63 | 154 | 1.0 | 2.0 | 0.00 | 0.00 | 0.00 | 57 | 1014.6 |
| 20260508135701 | 63 | 82 | 3.0 | 2.0 | 0.00 | 0.00 | 0.00 | 59 | 1014.6 |
| 20260508135156 | 63 | 186 | 0.0 | 0.0 | 0.00 | 0.00 | 0.00 | 58 | 1014.2 |
| 20260508134653 | 62 | 243 | 3.0 | 3.0 | 0.00 | 0.00 | 0.00 | 60 | 1014.2 |
| 20260508134150 | 61 | 338 | 1.0 | 1.0 | 0.00 | 0.00 | 0.00 | 66 | 1014.6 |
| 20260508133647 | 60 | 318 | 0.0 | 0.0 | 0.00 | 0.00 | 0.00 | 69 | 1014.2 |
| 20260508133144 | 59 | 352 | 2.0 | 2.0 | 0.00 | 0.00 | 0.00 | 68 | 1014.2 |
| 20260508132642 | 59 | 4 | 0.0 | 0.0 | 0.00 | 0.00 | 0.00 | 69 | 1014.2 |
| 20260508132139 | 59 | 301 | 1.0 | 1.0 | 0.00 | 0.00 | 0.00 | 71 | 1014.2 |
| 20260508131634 | 58 | 114 | 1.0 | 1.0 | 0.00 | 0.00 | 0.00 | 71 | 1014.2 |
| 20260508131131 | 58 | 290 | 0.0 | 0.0 | 0.00 | 0.00 | 0.00 | 74 | 1014.2 |
| 20260508130628 | 57 | 256 | 0.0 | 0.0 | 0.00 | 0.00 | 0.00 | 74 | 1013.8 |
| 20260508130125 | 57 | 265 | 1.0 | 1.0 | 0.00 | 0.00 | 0.00 | 75 | 1013.8 |
| 20260508125620 | 56 | 328 | 0.0 | 0.0 | 0.00 | 0.00 | 0.00 | 77 | 1013.8 |
| 20260508125118 | 55 | 328 | 0.0 | 0.0 | 0.00 | 0.00 | 0.00 | 78 | 1014.2 |
| 20260508124616 | 55 | 329 | 0.0 | 1.0 | 0.00 | 0.00 | 0.00 | 78 | 1014.2 |
| 20260508124112 | 54 | 321 | 0.0 | 0.0 | 0.00 | 0.00 | 0.00 | 80 | 1014.2 |
| 20260508123611 | 54 | 321 | 0.0 | 0.0 | 0.00 | 0.00 | 0.00 | 80 | 1014.2 |
| 20260508123108 | 53 | 321 | 0.0 | 0.0 | 0.00 | 0.00 | 0.00 | 81 | 1013.8 |
| 20260508122604 | 52 | 326 | 0.0 | 0.0 | 0.00 | 0.00 | 0.00 | 84 | 1013.8 |
| 20260508122101 | 51 | 326 | 0.0 | 0.0 | 0.00 | 0.00 | 0.00 | 86 | 1013.8 |
| 20260508121559 | 51 | 326 | 0.0 | 0.0 | 0.00 | 0.00 | 0.00 | 88 | 1013.8 |
| 20260508121057 | 50 | 326 | 0.0 | 0.0 | 0.00 | 0.00 | 0.00 | 91 | 1013.8 |
| 20260508120554 | 49 | 326 | 0.0 | 0.0 | 0.00 | 0.00 | 0.00 | 94 | 1013.8 |
| 20260508120053 | 49 | 283 | 0.0 | 0.0 | 0.00 | 0.00 | 0.00 | 95 | 1013.8 |
| 20260508115549 | 48 | 283 | 0.0 | 0.0 | 0.00 | 0.00 | 0.00 | 95 | 1013.8 |
| 20260508115046 | 48 | 283 | 0.0 | 0.0 | 0.00 | 0.00 | 0.00 | 96 | 1013.8 |
| 20260508114543 | 47 | 283 | 0.0 | 0.0 | 0.00 | 0.00 | 0.00 | 96 | 1013.5 |
| 20260508114039 | 47 | 283 | 0.0 | 0.0 | 0.00 | 0.00 | 0.00 | 96 | 1013.8 |
| 20260508113537 | 46 | 283 | 0.0 | 0.0 | 0.00 | 0.00 | 0.00 | 96 | 1013.8 |
| 20260508113035 | 46 | 283 | 0.0 | 0.0 | 0.00 | 0.00 | 0.00 | 96 | 1013.8 |
| 20260508112531 | 45 | 283 | 0.0 | 0.0 | 0.00 | 0.00 | 0.00 | 96 | 1013.8 |
| 20260508112027 | 45 | 283 | 0.0 | 0.0 | 0.00 | 0.00 | 0.00 | 96 | 1013.8 |
| 20260508111524 | 45 | 283 | 0.0 | 0.0 | 0.00 | 0.00 | 0.00 | 96 | 1013.5 |
| 20260508111022 | 45 | 283 | 0.0 | 0.0 | 0.00 | 0.00 | 0.00 | 96 | 1013.5 |
| 20260508110520 | 45 | 283 | 0.0 | 0.0 | 0.00 | 0.00 | 0.00 | 96 | 1013.8 |
| 20260508110015 | 45 | 283 | 0.0 | 0.0 | 0.00 | 0.00 | 0.00 | 96 | 1013.5 |
| 20260508105510 | 45 | 283 | 0.0 | 0.0 | 0.00 | 0.00 | 0.00 | 96 | 1013.8 |
| 20260508105008 | 45 | 283 | 0.0 | 0.0 | 0.00 | 0.00 | 0.00 | 96 | 1013.5 |
| 20260508104506 | 45 | 283 | 0.0 | 0.0 | 0.00 | 0.00 | 0.00 | 96 | 1013.8 |
| 20260508104002 | 45 | 283 | 0.0 | 0.0 | 0.00 | 0.00 | 0.00 | 96 | 1013.8 |
| 20260508103459 | 45 | 283 | 0.0 | 0.0 | 0.00 | 0.00 | 0.00 | 96 | 1013.5 |
| 20260508102955 | 44 | 283 | 0.0 | 0.0 | 0.00 | 0.00 | 0.00 | 96 | 1013.5 |
| 20260508102454 | 44 | 283 | 0.0 | 0.0 | 0.00 | 0.00 | 0.00 | 96 | 1013.8 |
| 20260508101951 | 44 | 283 | 1.0 | 1.0 | 0.00 | 0.00 | 0.00 | 96 | 1013.8 |
| 20260508101449 | 44 | 283 | 0.0 | 0.0 | 0.00 | 0.00 | 0.00 | 96 | 1013.5 |
| 20260508100945 | 44 | 283 | 0.0 | 0.0 | 0.00 | 0.00 | 0.00 | 96 | 1013.5 |
| 20260508100444 | 44 | 283 | 0.0 | 0.0 | 0.00 | 0.00 | 0.00 | 96 | 1013.8 |
| 20260508095940 | 44 | 283 | 0.0 | 0.0 | 0.00 | 0.00 | 0.00 | 96 | 1013.8 |
| 20260508095438 | 44 | 283 | 0.0 | 0.0 | 0.00 | 0.00 | 0.00 | 96 | 1014.2 |
| 20260508094934 | 44 | 283 | 0.0 | 0.0 | 0.00 | 0.00 | 0.00 | 96 | 1013.8 |
| 20260508094430 | 44 | 283 | 0.0 | 0.0 | 0.00 | 0.00 | 0.00 | 96 | 1013.8 |
| 20260508093927 | 44 | 283 | 0.0 | 0.0 | 0.00 | 0.00 | 0.00 | 96 | 1014.2 |
| 20260508093425 | 44 | 283 | 0.0 | 0.0 | 0.00 | 0.00 | 0.00 | 96 | 1013.8 |
| 20260508092922 | 44 | 283 | 0.0 | 0.0 | 0.00 | 0.00 | 0.00 | 96 | 1013.8 |
| 20260508092420 | 44 | 283 | 0.0 | 0.0 | 0.00 | 0.00 | 0.00 | 96 | 1013.8 |
| 20260508091918 | 44 | 283 | 0.0 | 0.0 | 0.00 | 0.00 | 0.00 | 96 | 1013.8 |
| 20260508091415 | 44 | 283 | 0.0 | 0.0 | 0.00 | 0.00 | 0.00 | 95 | 1013.8 |
| 20260508090912 | 44 | 283 | 0.0 | 0.0 | 0.00 | 0.00 | 0.00 | 95 | 1014.2 |
| 20260508090411 | 44 | 283 | 0.0 | 0.0 | 0.00 | 0.00 | 0.00 | 95 | 1014.2 |
| 20260508085911 | 44 | 283 | 0.0 | 0.0 | 0.00 | 0.00 | 0.00 | 95 | 1013.8 |
| 20260508085409 | 44 | 283 | 0.0 | 0.0 | 0.00 | 0.00 | 0.00 | 95 | 1014.2 |
| 20260508084905 | 44 | 283 | 0.0 | 0.0 | 0.00 | 0.00 | 0.00 | 95 | 1014.2 |
| 20260508084402 | 44 | 283 | 0.0 | 0.0 | 0.00 | 0.00 | 0.00 | 95 | 1014.2 |
| 20260508083900 | 44 | 283 | 0.0 | 0.0 | 0.00 | 0.00 | 0.00 | 95 | 1014.2 |
| 20260508083357 | 44 | 283 | 0.0 | 0.0 | 0.00 | 0.00 | 0.00 | 95 | 1014.2 |
| 20260508082856 | 44 | 283 | 0.0 | 0.0 | 0.00 | 0.00 | 0.00 | 95 | 1014.6 |
| 20260508082354 | 44 | 283 | 0.0 | 0.0 | 0.00 | 0.00 | 0.00 | 95 | 1014.2 |
| 20260508081852 | 44 | 283 | 0.0 | 0.0 | 0.00 | 0.00 | 0.00 | 95 | 1014.2 |
| 20260508081348 | 44 | 283 | 0.0 | 0.0 | 0.00 | 0.00 | 0.00 | 95 | 1014.2 |
| 20260508080845 | 44 | 283 | 0.0 | 0.0 | 0.00 | 0.00 | 0.00 | 95 | 1014.2 |
| 20260508080343 | 44 | 283 | 0.0 | 0.0 | 0.00 | 0.00 | 0.00 | 95 | 1014.2 |
| 20260508075839 | 44 | 283 | 0.0 | 0.0 | 0.00 | 0.00 | 0.00 | 95 | 1014.2 |
| 20260508075336 | 44 | 283 | 0.0 | 0.0 | 0.00 | 0.00 | 0.00 | 95 | 1014.6 |
| 20260508074834 | 44 | 283 | 0.0 | 0.0 | 0.00 | 0.00 | 0.00 | 95 | 1014.2 |
| 20260508074331 | 44 | 283 | 0.0 | 0.0 | 0.00 | 0.00 | 0.00 | 94 | 1014.6 |
| 20260508073828 | 44 | 283 | 0.0 | 0.0 | 0.00 | 0.00 | 0.00 | 94 | 1014.2 |
| 20260508073326 | 44 | 283 | 0.0 | 0.0 | 0.00 | 0.00 | 0.00 | 94 | 1014.6 |
| 20260508072822 | 44 | 283 | 0.0 | 0.0 | 0.00 | 0.00 | 0.00 | 94 | 1014.6 |
| 20260508072319 | 44 | 283 | 0.0 | 0.0 | 0.00 | 0.00 | 0.00 | 94 | 1014.6 |
| 20260508071816 | 44 | 283 | 0.0 | 0.0 | 0.00 | 0.00 | 0.00 | 94 | 1014.6 |
| 20260508071314 | 44 | 283 | 0.0 | 0.0 | 0.00 | 0.00 | 0.00 | 94 | 1014.6 |
| 20260508070811 | 44 | 283 | 0.0 | 0.0 | 0.00 | 0.00 | 0.00 | 93 | 1014.6 |
| 20260508070310 | 44 | 283 | 0.0 | 0.0 | 0.00 | 0.00 | 0.00 | 93 | 1014.6 |
| 20260508065807 | 45 | 283 | 0.0 | 0.0 | 0.00 | 0.00 | 0.00 | 93 | 1014.9 |
| 20260508065307 | 45 | 283 | 0.0 | 0.0 | 0.00 | 0.00 | 0.00 | 93 | 1014.9 |
| 20260508064803 | 45 | 283 | 0.0 | 0.0 | 0.00 | 0.00 | 0.00 | 94 | 1014.9 |
| 20260508064300 | 45 | 282 | 0.0 | 0.0 | 0.00 | 0.00 | 0.00 | 94 | 1014.9 |
| 20260508063757 | 45 | 283 | 0.0 | 0.0 | 0.00 | 0.00 | 0.00 | 94 | 1014.9 |
| 20260508063256 | 45 | 283 | 0.0 | 0.0 | 0.00 | 0.00 | 0.00 | 94 | 1015.3 |
| 20260508062752 | 45 | 283 | 0.0 | 0.0 | 0.00 | 0.00 | 0.00 | 93 | 1015.3 |
| 20260508062250 | 45 | 283 | 0.0 | 0.0 | 0.00 | 0.00 | 0.00 | 93 | 1014.9 |
| 20260508061746 | 45 | 283 | 0.0 | 0.0 | 0.00 | 0.00 | 0.00 | 93 | 1015.3 |
| 20260508061243 | 45 | 283 | 0.0 | 0.0 | 0.00 | 0.00 | 0.00 | 93 | 1015.6 |
| 20260508060740 | 45 | 283 | 0.0 | 0.0 | 0.00 | 0.00 | 0.00 | 93 | 1015.3 |
| 20260508060238 | 45 | 283 | 0.0 | 0.0 | 0.00 | 0.00 | 0.00 | 93 | 1015.6 |
| 20260508055733 | 45 | 283 | 0.0 | 0.0 | 0.00 | 0.00 | 0.00 | 93 | 1015.6 |
| 20260508055231 | 45 | 283 | 0.0 | 0.0 | 0.00 | 0.00 | 0.00 | 93 | 1015.3 |
| 20260508054727 | 46 | 283 | 0.0 | 0.0 | 0.00 | 0.00 | 0.00 | 92 | 1015.3 |
| 20260508054225 | 46 | 283 | 0.0 | 0.0 | 0.00 | 0.00 | 0.00 | 93 | 1015.6 |
| 20260508053721 | 46 | 283 | 0.0 | 0.0 | 0.00 | 0.00 | 0.00 | 93 | 1015.6 |
| 20260508053219 | 46 | 283 | 0.0 | 0.0 | 0.00 | 0.00 | 0.00 | 92 | 1015.6 |
| 20260508052716 | 46 | 283 | 0.0 | 0.0 | 0.00 | 0.00 | 0.00 | 92 | 1015.6 |
| 20260508052213 | 46 | 283 | 0.0 | 0.0 | 0.00 | 0.00 | 0.00 | 92 | 1015.3 |
| 20260508051709 | 46 | 283 | 0.0 | 0.0 | 0.00 | 0.00 | 0.00 | 91 | 1015.6 |
| 20260508051205 | 46 | 283 | 0.0 | 0.0 | 0.00 | 0.00 | 0.00 | 91 | 1015.6 |
| 20260508050701 | 46 | 283 | 0.0 | 0.0 | 0.00 | 0.00 | 0.00 | 91 | 1015.6 |
| 20260508050159 | 47 | 283 | 0.0 | 0.0 | 0.00 | 0.00 | 0.00 | 91 | 1015.3 |
| 20260508045654 | 47 | 283 | 0.0 | 0.0 | 0.00 | 0.00 | 0.00 | 91 | 1015.3 |
| 20260508045153 | 47 | 283 | 0.0 | 0.0 | 0.00 | 0.00 | 0.00 | 91 | 1015.6 |
| 20260508044650 | 47 | 283 | 0.0 | 0.0 | 0.00 | 0.00 | 0.00 | 91 | 1015.9 |
| 20260508044146 | 47 | 283 | 0.0 | 0.0 | 0.00 | 0.00 | 0.00 | 91 | 1015.6 |
| 20260508043642 | 47 | 283 | 0.0 | 0.0 | 0.00 | 0.00 | 0.00 | 90 | 1015.6 |
| 20260508043140 | 47 | 283 | 0.0 | 0.0 | 0.00 | 0.00 | 0.00 | 90 | 1015.9 |
| 20260508042636 | 47 | 283 | 0.0 | 0.0 | 0.00 | 0.00 | 0.00 | 90 | 1015.6 |
| 20260508042134 | 48 | 282 | 0.0 | 0.0 | 0.00 | 0.00 | 0.00 | 89 | 1015.9 |
| 20260508041630 | 48 | 283 | 0.0 | 0.0 | 0.00 | 0.00 | 0.00 | 89 | 1016.3 |
| 20260508041127 | 48 | 283 | 0.0 | 0.0 | 0.00 | 0.00 | 0.00 | 89 | 1016.3 |